sensor_id;sensor_type;location;lat;lon;timestamp;P1;durP1;ratioP1;P2;durP2;ratioP2
20118;SDS011;10220;42.716;23.306;2022-07-29T00:00:13;13.02;;;11.85;;
20118;SDS011;10220;42.716;23.306;2022-07-29T00:02:39;12.00;;;10.88;;
20118;SDS011;10220;42.716;23.306;2022-07-29T00:05:05;13.57;;;12.27;;
20118;SDS011;10220;42.716;23.306;2022-07-29T00:07:31;11.30;;;10.30;;
20118;SDS011;10220;42.716;23.306;2022-07-29T00:09:56;13.38;;;11.63;;
20118;SDS011;10220;42.716;23.306;2022-07-29T00:12:22;12.40;;;11.30;;
20118;SDS011;10220;42.716;23.306;2022-07-29T00:14:49;12.45;;;11.38;;
20118;SDS011;10220;42.716;23.306;2022-07-29T00:17:15;12.93;;;11.63;;
20118;SDS011;10220;42.716;23.306;2022-07-29T00:19:40;13.60;;;12.27;;
20118;SDS011;10220;42.716;23.306;2022-07-29T00:22:06;13.63;;;12.32;;
20118;SDS011;10220;42.716;23.306;2022-07-29T00:24:31;13.60;;;12.20;;
20118;SDS011;10220;42.716;23.306;2022-07-29T00:26:57;13.35;;;12.15;;
20118;SDS011;10220;42.716;23.306;2022-07-29T00:29:22;15.32;;;13.93;;
20118;SDS011;10220;42.716;23.306;2022-07-29T00:31:48;15.23;;;13.93;;
20118;SDS011;10220;42.716;23.306;2022-07-29T00:34:13;14.77;;;13.38;;
20118;SDS011;10220;42.716;23.306;2022-07-29T00:36:57;14.48;;;13.15;;
20118;SDS011;10220;42.716;23.306;2022-07-29T00:39:23;15.18;;;13.77;;
20118;SDS011;10220;42.716;23.306;2022-07-29T00:41:48;17.08;;;13.93;;
20118;SDS011;10220;42.716;23.306;2022-07-29T00:44:14;15.93;;;14.43;;
20118;SDS011;10220;42.716;23.306;2022-07-29T00:46:39;17.73;;;15.13;;
20118;SDS011;10220;42.716;23.306;2022-07-29T00:49:05;16.77;;;15.10;;
20118;SDS011;10220;42.716;23.306;2022-07-29T00:51:32;16.45;;;14.73;;
20118;SDS011;10220;42.716;23.306;2022-07-29T00:54:01;16.27;;;14.50;;
20118;SDS011;10220;42.716;23.306;2022-07-29T00:56:29;16.40;;;14.75;;
20118;SDS011;10220;42.716;23.306;2022-07-29T00:58:55;16.80;;;15.27;;
20118;SDS011;10220;42.716;23.306;2022-07-29T01:01:21;16.67;;;15.18;;
20118;SDS011;10220;42.716;23.306;2022-07-29T01:03:47;16.25;;;14.70;;
20118;SDS011;10220;42.716;23.306;2022-07-29T01:06:12;17.48;;;15.63;;
20118;SDS011;10220;42.716;23.306;2022-07-29T01:08:38;16.20;;;14.70;;
20118;SDS011;10220;42.716;23.306;2022-07-29T01:11:05;16.92;;;15.25;;
20118;SDS011;10220;42.716;23.306;2022-07-29T01:13:30;16.40;;;14.55;;
20118;SDS011;10220;42.716;23.306;2022-07-29T01:16:02;17.15;;;15.38;;
20118;SDS011;10220;42.716;23.306;2022-07-29T01:18:34;17.58;;;15.75;;
20118;SDS011;10220;42.716;23.306;2022-07-29T01:29:29;16.33;;;14.73;;
20118;SDS011;10220;42.716;23.306;2022-07-29T01:35:05;19.40;;;15.55;;
20118;SDS011;10220;42.716;23.306;2022-07-29T01:37:37;18.70;;;16.80;;
20118;SDS011;10220;42.716;23.306;2022-07-29T01:40:11;16.13;;;14.52;;
20118;SDS011;10220;42.716;23.306;2022-07-29T01:42:42;17.38;;;15.77;;
20118;SDS011;10220;42.716;23.306;2022-07-29T01:45:14;16.75;;;15.18;;
20118;SDS011;10220;42.716;23.306;2022-07-29T01:47:46;16.55;;;14.98;;
20118;SDS011;10220;42.716;23.306;2022-07-29T01:50:37;16.77;;;15.10;;
20118;SDS011;10220;42.716;23.306;2022-07-29T01:53:15;16.33;;;14.65;;
20118;SDS011;10220;42.716;23.306;2022-07-29T01:55:47;17.05;;;15.35;;
20118;SDS011;10220;42.716;23.306;2022-07-29T01:58:15;17.38;;;15.57;;
20118;SDS011;10220;42.716;23.306;2022-07-29T02:00:44;18.20;;;16.27;;
20118;SDS011;10220;42.716;23.306;2022-07-29T02:03:11;16.88;;;15.18;;
20118;SDS011;10220;42.716;23.306;2022-07-29T02:05:39;16.70;;;15.00;;
20118;SDS011;10220;42.716;23.306;2022-07-29T02:08:07;16.55;;;14.88;;
20118;SDS011;10220;42.716;23.306;2022-07-29T02:10:34;17.02;;;15.05;;
20118;SDS011;10220;42.716;23.306;2022-07-29T02:13:02;17.55;;;15.88;;
20118;SDS011;10220;42.716;23.306;2022-07-29T02:15:30;19.50;;;16.13;;
20118;SDS011;10220;42.716;23.306;2022-07-29T02:18:02;17.85;;;16.05;;
20118;SDS011;10220;42.716;23.306;2022-07-29T02:20:33;17.60;;;15.90;;
20118;SDS011;10220;42.716;23.306;2022-07-29T02:23:00;18.70;;;16.90;;
20118;SDS011;10220;42.716;23.306;2022-07-29T02:25:27;18.17;;;16.45;;
20118;SDS011;10220;42.716;23.306;2022-07-29T02:27:54;20.13;;;17.48;;
20118;SDS011;10220;42.716;23.306;2022-07-29T02:30:21;19.15;;;17.23;;
20118;SDS011;10220;42.716;23.306;2022-07-29T02:32:48;19.70;;;17.67;;
20118;SDS011;10220;42.716;23.306;2022-07-29T02:35:16;18.83;;;16.83;;
20118;SDS011;10220;42.716;23.306;2022-07-29T02:37:43;18.55;;;16.75;;
20118;SDS011;10220;42.716;23.306;2022-07-29T02:40:30;18.40;;;16.48;;
20118;SDS011;10220;42.716;23.306;2022-07-29T02:42:57;19.15;;;17.15;;
20118;SDS011;10220;42.716;23.306;2022-07-29T02:45:23;19.38;;;17.48;;
20118;SDS011;10220;42.716;23.306;2022-07-29T02:47:49;19.38;;;17.52;;
20118;SDS011;10220;42.716;23.306;2022-07-29T02:50:17;18.73;;;16.70;;
20118;SDS011;10220;42.716;23.306;2022-07-29T02:55:46;22.10;;;19.88;;
20118;SDS011;10220;42.716;23.306;2022-07-29T03:00:58;22.02;;;19.73;;
20118;SDS011;10220;42.716;23.306;2022-07-29T03:03:28;22.45;;;19.27;;
20118;SDS011;10220;42.716;23.306;2022-07-29T03:05:56;21.20;;;18.98;;
20118;SDS011;10220;42.716;23.306;2022-07-29T03:08:24;21.40;;;19.05;;
20118;SDS011;10220;42.716;23.306;2022-07-29T03:10:52;21.63;;;19.15;;
20118;SDS011;10220;42.716;23.306;2022-07-29T03:13:19;21.13;;;18.92;;
20118;SDS011;10220;42.716;23.306;2022-07-29T03:15:45;20.45;;;18.33;;
20118;SDS011;10220;42.716;23.306;2022-07-29T03:18:11;21.30;;;18.98;;
20118;SDS011;10220;42.716;23.306;2022-07-29T03:20:38;21.42;;;19.17;;
20118;SDS011;10220;42.716;23.306;2022-07-29T03:23:04;21.45;;;19.20;;
20118;SDS011;10220;42.716;23.306;2022-07-29T03:25:30;21.65;;;19.35;;
20118;SDS011;10220;42.716;23.306;2022-07-29T03:27:55;22.05;;;19.45;;
20118;SDS011;10220;42.716;23.306;2022-07-29T03:30:21;23.10;;;18.73;;
20118;SDS011;10220;42.716;23.306;2022-07-29T03:32:48;20.10;;;17.95;;
20118;SDS011;10220;42.716;23.306;2022-07-29T03:35:16;19.23;;;17.23;;
20118;SDS011;10220;42.716;23.306;2022-07-29T03:37:42;19.23;;;17.27;;
20118;SDS011;10220;42.716;23.306;2022-07-29T03:40:10;17.98;;;16.17;;
20118;SDS011;10220;42.716;23.306;2022-07-29T03:42:39;19.67;;;17.48;;
20118;SDS011;10220;42.716;23.306;2022-07-29T03:45:07;19.17;;;16.40;;
20118;SDS011;10220;42.716;23.306;2022-07-29T03:47:37;19.65;;;17.52;;
20118;SDS011;10220;42.716;23.306;2022-07-29T03:50:08;20.10;;;17.98;;
20118;SDS011;10220;42.716;23.306;2022-07-29T03:52:36;20.33;;;16.90;;
20118;SDS011;10220;42.716;23.306;2022-07-29T03:55:03;19.88;;;17.77;;
20118;SDS011;10220;42.716;23.306;2022-07-29T03:57:30;20.15;;;17.92;;
20118;SDS011;10220;42.716;23.306;2022-07-29T03:59:56;22.02;;;16.40;;
20118;SDS011;10220;42.716;23.306;2022-07-29T04:02:23;16.55;;;14.85;;
20118;SDS011;10220;42.716;23.306;2022-07-29T04:04:50;21.27;;;16.38;;
20118;SDS011;10220;42.716;23.306;2022-07-29T04:07:16;20.35;;;15.40;;
20118;SDS011;10220;42.716;23.306;2022-07-29T04:09:41;19.75;;;16.25;;
20118;SDS011;10220;42.716;23.306;2022-07-29T04:12:07;17.63;;;15.73;;
20118;SDS011;10220;42.716;23.306;2022-07-29T04:14:33;17.05;;;15.38;;
20118;SDS011;10220;42.716;23.306;2022-07-29T04:17:17;19.60;;;17.23;;
20118;SDS011;10220;42.716;23.306;2022-07-29T04:19:43;19.95;;;17.85;;
20118;SDS011;10220;42.716;23.306;2022-07-29T04:22:08;20.30;;;18.27;;
20118;SDS011;10220;42.716;23.306;2022-07-29T04:24:34;22.27;;;20.20;;
20118;SDS011;10220;42.716;23.306;2022-07-29T04:26:59;15.50;;;14.10;;
20118;SDS011;10220;42.716;23.306;2022-07-29T04:29:25;19.13;;;17.17;;
20118;SDS011;10220;42.716;23.306;2022-07-29T04:31:50;17.30;;;15.52;;
20118;SDS011;10220;42.716;23.306;2022-07-29T04:34:15;18.13;;;14.18;;
20118;SDS011;10220;42.716;23.306;2022-07-29T04:36:41;19.35;;;15.82;;
20118;SDS011;10220;42.716;23.306;2022-07-29T04:39:06;17.33;;;15.63;;
20118;SDS011;10220;42.716;23.306;2022-07-29T04:41:32;16.63;;;14.88;;
20118;SDS011;10220;42.716;23.306;2022-07-29T04:43:57;16.35;;;14.63;;
20118;SDS011;10220;42.716;23.306;2022-07-29T04:46:25;18.05;;;16.20;;
20118;SDS011;10220;42.716;23.306;2022-07-29T04:48:51;16.30;;;14.63;;
20118;SDS011;10220;42.716;23.306;2022-07-29T04:51:16;14.93;;;13.60;;
20118;SDS011;10220;42.716;23.306;2022-07-29T04:53:41;19.08;;;13.55;;
20118;SDS011;10220;42.716;23.306;2022-07-29T04:56:07;15.68;;;13.95;;
20118;SDS011;10220;42.716;23.306;2022-07-29T04:58:35;13.10;;;11.80;;
20118;SDS011;10220;42.716;23.306;2022-07-29T05:01:02;10.98;;;9.88;;
20118;SDS011;10220;42.716;23.306;2022-07-29T05:03:28;11.77;;;10.52;;
20118;SDS011;10220;42.716;23.306;2022-07-29T05:05:53;11.43;;;9.35;;
20118;SDS011;10220;42.716;23.306;2022-07-29T05:08:19;11.55;;;8.80;;
20118;SDS011;10220;42.716;23.306;2022-07-29T05:10:45;9.63;;;8.68;;
20118;SDS011;10220;42.716;23.306;2022-07-29T05:13:10;10.77;;;8.43;;
20118;SDS011;10220;42.716;23.306;2022-07-29T05:15:36;24.70;;;10.85;;
20118;SDS011;10220;42.716;23.306;2022-07-29T05:18:02;23.98;;;9.43;;
20118;SDS011;10220;42.716;23.306;2022-07-29T05:20:28;10.18;;;8.85;;
20118;SDS011;10220;42.716;23.306;2022-07-29T05:22:58;13.82;;;10.35;;
20118;SDS011;10220;42.716;23.306;2022-07-29T05:25:25;11.52;;;8.73;;
20118;SDS011;10220;42.716;23.306;2022-07-29T05:27:51;9.32;;;8.43;;
20118;SDS011;10220;42.716;23.306;2022-07-29T05:30:19;25.63;;;10.82;;
20118;SDS011;10220;42.716;23.306;2022-07-29T05:32:45;18.52;;;9.38;;
20118;SDS011;10220;42.716;23.306;2022-07-29T05:35:11;9.63;;;8.68;;
20118;SDS011;10220;42.716;23.306;2022-07-29T05:37:38;16.65;;;9.50;;
20118;SDS011;10220;42.716;23.306;2022-07-29T05:40:03;10.02;;;9.13;;
20118;SDS011;10220;42.716;23.306;2022-07-29T05:42:29;15.30;;;9.65;;
20118;SDS011;10220;42.716;23.306;2022-07-29T05:44:55;15.88;;;10.27;;
20118;SDS011;10220;42.716;23.306;2022-07-29T05:47:21;14.75;;;10.25;;
20118;SDS011;10220;42.716;23.306;2022-07-29T05:49:47;10.63;;;9.50;;
20118;SDS011;10220;42.716;23.306;2022-07-29T05:52:13;20.52;;;10.35;;
20118;SDS011;10220;42.716;23.306;2022-07-29T05:54:39;24.10;;;10.20;;
20118;SDS011;10220;42.716;23.306;2022-07-29T05:57:05;14.30;;;9.27;;
20118;SDS011;10220;42.716;23.306;2022-07-29T05:59:31;15.35;;;8.80;;
20118;SDS011;10220;42.716;23.306;2022-07-29T06:02:00;23.50;;;11.23;;
20118;SDS011;10220;42.716;23.306;2022-07-29T06:04:25;8.25;;;7.38;;
20118;SDS011;10220;42.716;23.306;2022-07-29T06:06:51;12.30;;;8.32;;
20118;SDS011;10220;42.716;23.306;2022-07-29T06:09:16;10.10;;;7.82;;
20118;SDS011;10220;42.716;23.306;2022-07-29T06:11:41;8.25;;;7.53;;
20118;SDS011;10220;42.716;23.306;2022-07-29T06:14:07;9.85;;;8.48;;
20118;SDS011;10220;42.716;23.306;2022-07-29T06:16:32;8.70;;;7.32;;
20118;SDS011;10220;42.716;23.306;2022-07-29T06:18:58;9.70;;;7.35;;
20118;SDS011;10220;42.716;23.306;2022-07-29T06:21:23;7.60;;;6.80;;
20118;SDS011;10220;42.716;23.306;2022-07-29T06:23:49;7.32;;;6.72;;
20118;SDS011;10220;42.716;23.306;2022-07-29T06:26:14;9.20;;;6.32;;
20118;SDS011;10220;42.716;23.306;2022-07-29T06:28:39;6.70;;;6.10;;
20118;SDS011;10220;42.716;23.306;2022-07-29T06:31:05;8.02;;;7.28;;
20118;SDS011;10220;42.716;23.306;2022-07-29T06:33:30;7.88;;;7.10;;
20118;SDS011;10220;42.716;23.306;2022-07-29T06:35:56;9.50;;;6.60;;
20118;SDS011;10220;42.716;23.306;2022-07-29T06:38:21;7.57;;;6.88;;
20118;SDS011;10220;42.716;23.306;2022-07-29T06:40:47;9.00;;;6.30;;
20118;SDS011;10220;42.716;23.306;2022-07-29T06:43:25;8.00;;;6.00;;
20118;SDS011;10220;42.716;23.306;2022-07-29T06:45:57;6.70;;;6.10;;
20118;SDS011;10220;42.716;23.306;2022-07-29T06:48:23;11.25;;;10.00;;
20118;SDS011;10220;42.716;23.306;2022-07-29T06:50:49;6.85;;;6.25;;
20118;SDS011;10220;42.716;23.306;2022-07-29T06:53:14;7.60;;;6.07;;
20118;SDS011;10220;42.716;23.306;2022-07-29T06:55:40;7.57;;;5.78;;
20118;SDS011;10220;42.716;23.306;2022-07-29T06:58:05;7.72;;;5.82;;
20118;SDS011;10220;42.716;23.306;2022-07-29T07:00:32;6.35;;;5.85;;
20118;SDS011;10220;42.716;23.306;2022-07-29T07:02:58;9.05;;;5.85;;
20118;SDS011;10220;42.716;23.306;2022-07-29T07:05:23;9.65;;;5.65;;
20118;SDS011;10220;42.716;23.306;2022-07-29T07:07:48;7.07;;;5.25;;
20118;SDS011;10220;42.716;23.306;2022-07-29T07:10:14;7.32;;;5.10;;
20118;SDS011;10220;42.716;23.306;2022-07-29T07:12:39;7.88;;;7.18;;
20118;SDS011;10220;42.716;23.306;2022-07-29T07:15:05;5.40;;;4.90;;
20118;SDS011;10220;42.716;23.306;2022-07-29T07:17:31;5.57;;;4.95;;
20118;SDS011;10220;42.716;23.306;2022-07-29T07:19:56;6.93;;;5.07;;
20118;SDS011;10220;42.716;23.306;2022-07-29T07:22:22;5.35;;;4.85;;
20118;SDS011;10220;42.716;23.306;2022-07-29T07:24:47;4.97;;;4.20;;
20118;SDS011;10220;42.716;23.306;2022-07-29T07:27:13;5.78;;;4.60;;
20118;SDS011;10220;42.716;23.306;2022-07-29T07:29:38;6.15;;;4.45;;
20118;SDS011;10220;42.716;23.306;2022-07-29T07:32:06;7.18;;;5.10;;
20118;SDS011;10220;42.716;23.306;2022-07-29T07:34:32;5.28;;;4.28;;
20118;SDS011;10220;42.716;23.306;2022-07-29T07:36:58;6.43;;;4.63;;
20118;SDS011;10220;42.716;23.306;2022-07-29T07:39:23;5.93;;;5.32;;
20118;SDS011;10220;42.716;23.306;2022-07-29T07:41:49;6.65;;;4.88;;
20118;SDS011;10220;42.716;23.306;2022-07-29T07:44:15;5.72;;;4.47;;
20118;SDS011;10220;42.716;23.306;2022-07-29T07:46:40;7.03;;;4.82;;
20118;SDS011;10220;42.716;23.306;2022-07-29T07:49:06;5.13;;;4.60;;
20118;SDS011;10220;42.716;23.306;2022-07-29T07:51:31;6.53;;;4.70;;
20118;SDS011;10220;42.716;23.306;2022-07-29T07:53:57;5.00;;;4.60;;
20118;SDS011;10220;42.716;23.306;2022-07-29T07:56:22;6.57;;;5.20;;
20118;SDS011;10220;42.716;23.306;2022-07-29T07:58:47;6.10;;;4.75;;
20118;SDS011;10220;42.716;23.306;2022-07-29T08:01:13;5.47;;;4.90;;
20118;SDS011;10220;42.716;23.306;2022-07-29T08:03:38;4.80;;;4.13;;
20118;SDS011;10220;42.716;23.306;2022-07-29T08:06:04;4.68;;;4.28;;
20118;SDS011;10220;42.716;23.306;2022-07-29T08:08:29;6.03;;;4.80;;
20118;SDS011;10220;42.716;23.306;2022-07-29T08:10:55;8.52;;;4.70;;
20118;SDS011;10220;42.716;23.306;2022-07-29T08:13:21;6.32;;;4.70;;
20118;SDS011;10220;42.716;23.306;2022-07-29T08:15:50;4.93;;;4.53;;
20118;SDS011;10220;42.716;23.306;2022-07-29T08:18:23;5.13;;;4.47;;
20118;SDS011;10220;42.716;23.306;2022-07-29T08:20:49;5.80;;;5.00;;
20118;SDS011;10220;42.716;23.306;2022-07-29T08:23:15;4.60;;;4.15;;
20118;SDS011;10220;42.716;23.306;2022-07-29T08:25:40;4.93;;;4.53;;
20118;SDS011;10220;42.716;23.306;2022-07-29T08:28:07;4.65;;;4.20;;
20118;SDS011;10220;42.716;23.306;2022-07-29T08:30:32;4.78;;;4.20;;
20118;SDS011;10220;42.716;23.306;2022-07-29T08:32:58;4.60;;;4.00;;
20118;SDS011;10220;42.716;23.306;2022-07-29T08:35:24;4.53;;;4.20;;
20118;SDS011;10220;42.716;23.306;2022-07-29T08:37:50;4.45;;;4.05;;
20118;SDS011;10220;42.716;23.306;2022-07-29T08:40:17;4.82;;;4.35;;
20118;SDS011;10220;42.716;23.306;2022-07-29T08:42:42;4.65;;;3.92;;
20118;SDS011;10220;42.716;23.306;2022-07-29T08:45:08;4.05;;;3.70;;
20118;SDS011;10220;42.716;23.306;2022-07-29T08:47:33;7.40;;;4.20;;
20118;SDS011;10220;42.716;23.306;2022-07-29T08:50:03;3.92;;;3.58;;
20118;SDS011;10220;42.716;23.306;2022-07-29T08:52:29;4.18;;;3.78;;
20118;SDS011;10220;42.716;23.306;2022-07-29T08:55:00;3.97;;;3.67;;
20118;SDS011;10220;42.716;23.306;2022-07-29T08:57:27;6.22;;;4.22;;
20118;SDS011;10220;42.716;23.306;2022-07-29T08:59:53;4.97;;;4.10;;
20118;SDS011;10220;42.716;23.306;2022-07-29T09:02:20;4.82;;;3.72;;
20118;SDS011;10220;42.716;23.306;2022-07-29T09:04:47;4.45;;;4.00;;
20118;SDS011;10220;42.716;23.306;2022-07-29T09:07:17;4.55;;;4.00;;
20118;SDS011;10220;42.716;23.306;2022-07-29T09:09:43;5.95;;;5.45;;
20118;SDS011;10220;42.716;23.306;2022-07-29T09:12:09;14.93;;;13.40;;
20118;SDS011;10220;42.716;23.306;2022-07-29T09:14:36;6.30;;;4.15;;
20118;SDS011;10220;42.716;23.306;2022-07-29T09:17:03;4.85;;;3.70;;
20118;SDS011;10220;42.716;23.306;2022-07-29T09:19:30;5.22;;;4.03;;
20118;SDS011;10220;42.716;23.306;2022-07-29T09:21:57;4.43;;;4.03;;
20118;SDS011;10220;42.716;23.306;2022-07-29T09:24:35;4.07;;;3.67;;
20118;SDS011;10220;42.716;23.306;2022-07-29T09:27:09;6.32;;;3.70;;
20118;SDS011;10220;42.716;23.306;2022-07-29T09:30:09;4.03;;;3.67;;
20118;SDS011;10220;42.716;23.306;2022-07-29T09:32:57;5.30;;;4.28;;
20118;SDS011;10220;42.716;23.306;2022-07-29T09:35:26;4.75;;;4.10;;
20118;SDS011;10220;42.716;23.306;2022-07-29T09:37:53;4.30;;;4.00;;
20118;SDS011;10220;42.716;23.306;2022-07-29T09:40:20;4.32;;;3.92;;
20118;SDS011;10220;42.716;23.306;2022-07-29T09:42:50;4.00;;;3.70;;
20118;SDS011;10220;42.716;23.306;2022-07-29T09:45:32;4.72;;;4.10;;
20118;SDS011;10220;42.716;23.306;2022-07-29T09:47:58;6.28;;;4.20;;
20118;SDS011;10220;42.716;23.306;2022-07-29T09:50:40;5.55;;;5.15;;
20118;SDS011;10220;42.716;23.306;2022-07-29T09:53:07;4.40;;;4.10;;
20118;SDS011;10220;42.716;23.306;2022-07-29T09:55:45;4.18;;;3.78;;
20118;SDS011;10220;42.716;23.306;2022-07-29T09:58:15;5.63;;;4.03;;
20118;SDS011;10220;42.716;23.306;2022-07-29T10:00:45;4.75;;;4.35;;
20118;SDS011;10220;42.716;23.306;2022-07-29T10:03:12;6.25;;;4.47;;
20118;SDS011;10220;42.716;23.306;2022-07-29T10:05:39;4.25;;;3.92;;
20118;SDS011;10220;42.716;23.306;2022-07-29T10:08:05;5.65;;;3.90;;
20118;SDS011;10220;42.716;23.306;2022-07-29T10:10:37;4.75;;;3.97;;
20118;SDS011;10220;42.716;23.306;2022-07-29T10:13:08;5.95;;;4.55;;
20118;SDS011;10220;42.716;23.306;2022-07-29T10:15:36;4.63;;;4.22;;
20118;SDS011;10220;42.716;23.306;2022-07-29T10:18:06;6.82;;;4.10;;
20118;SDS011;10220;42.716;23.306;2022-07-29T10:20:33;4.53;;;3.60;;
20118;SDS011;10220;42.716;23.306;2022-07-29T10:22:59;6.55;;;3.80;;
20118;SDS011;10220;42.716;23.306;2022-07-29T10:25:25;3.97;;;3.45;;
20118;SDS011;10220;42.716;23.306;2022-07-29T10:27:51;4.57;;;3.97;;
20118;SDS011;10220;42.716;23.306;2022-07-29T10:30:17;6.35;;;3.95;;
20118;SDS011;10220;42.716;23.306;2022-07-29T10:35:52;6.78;;;5.60;;
20118;SDS011;10220;42.716;23.306;2022-07-29T10:43:57;4.90;;;4.03;;
20118;SDS011;10220;42.716;23.306;2022-07-29T10:46:53;4.65;;;4.18;;
20118;SDS011;10220;42.716;23.306;2022-07-29T10:49:20;3.65;;;3.35;;
20118;SDS011;10220;42.716;23.306;2022-07-29T10:54:19;3.70;;;3.38;;
20118;SDS011;10220;42.716;23.306;2022-07-29T11:05:17;4.30;;;3.55;;
20118;SDS011;10220;42.716;23.306;2022-07-29T11:10:37;4.78;;;3.78;;
20118;SDS011;10220;42.716;23.306;2022-07-29T11:13:03;4.40;;;4.00;;
20118;SDS011;10220;42.716;23.306;2022-07-29T11:15:29;4.05;;;3.65;;
20118;SDS011;10220;42.716;23.306;2022-07-29T11:18:17;4.47;;;4.07;;
20118;SDS011;10220;42.716;23.306;2022-07-29T11:20:46;6.78;;;4.68;;
20118;SDS011;10220;42.716;23.306;2022-07-29T11:23:25;4.25;;;3.95;;
20118;SDS011;10220;42.716;23.306;2022-07-29T11:34:26;4.55;;;4.15;;
20118;SDS011;10220;42.716;23.306;2022-07-29T11:39:30;6.22;;;4.22;;
20118;SDS011;10220;42.716;23.306;2022-07-29T11:47:34;4.63;;;4.22;;
20118;SDS011;10220;42.716;23.306;2022-07-29T11:50:07;5.10;;;4.60;;
20118;SDS011;10220;42.716;23.306;2022-07-29T11:52:35;5.45;;;4.53;;
20118;SDS011;10220;42.716;23.306;2022-07-29T11:55:09;5.57;;;5.07;;
20118;SDS011;10220;42.716;23.306;2022-07-29T11:57:37;5.30;;;4.75;;
20118;SDS011;10220;42.716;23.306;2022-07-29T12:00:04;5.10;;;4.72;;
20118;SDS011;10220;42.716;23.306;2022-07-29T12:02:41;5.10;;;4.70;;
20118;SDS011;10220;42.716;23.306;2022-07-29T12:05:08;4.93;;;4.53;;
20118;SDS011;10220;42.716;23.306;2022-07-29T12:07:35;7.55;;;4.80;;
20118;SDS011;10220;42.716;23.306;2022-07-29T12:10:02;6.35;;;4.85;;
20118;SDS011;10220;42.716;23.306;2022-07-29T12:12:28;5.63;;;4.88;;
20118;SDS011;10220;42.716;23.306;2022-07-29T12:14:54;6.28;;;5.22;;
20118;SDS011;10220;42.716;23.306;2022-07-29T12:19:55;5.60;;;5.20;;
20118;SDS011;10220;42.716;23.306;2022-07-29T12:22:31;7.15;;;5.40;;
20118;SDS011;10220;42.716;23.306;2022-07-29T12:25:02;6.07;;;5.60;;
20118;SDS011;10220;42.716;23.306;2022-07-29T12:27:29;5.43;;;4.95;;
20118;SDS011;10220;42.716;23.306;2022-07-29T12:29:56;5.78;;;5.28;;
20118;SDS011;10220;42.716;23.306;2022-07-29T12:32:38;4.80;;;4.50;;
20118;SDS011;10220;42.716;23.306;2022-07-29T12:35:10;5.70;;;5.30;;
20118;SDS011;10220;42.716;23.306;2022-07-29T12:37:40;5.72;;;5.32;;
20118;SDS011;10220;42.716;23.306;2022-07-29T12:40:07;5.68;;;5.10;;
20118;SDS011;10220;42.716;23.306;2022-07-29T12:42:35;5.45;;;5.03;;
20118;SDS011;10220;42.716;23.306;2022-07-29T12:45:02;5.35;;;4.85;;
20118;SDS011;10220;42.716;23.306;2022-07-29T12:47:28;5.75;;;5.25;;
20118;SDS011;10220;42.716;23.306;2022-07-29T12:50:07;6.90;;;6.30;;
20118;SDS011;10220;42.716;23.306;2022-07-29T12:52:33;7.47;;;5.20;;
20118;SDS011;10220;42.716;23.306;2022-07-29T12:54:59;5.95;;;5.53;;
20118;SDS011;10220;42.716;23.306;2022-07-29T12:57:26;5.78;;;5.32;;
20118;SDS011;10220;42.716;23.306;2022-07-29T13:00:03;5.78;;;5.28;;
20118;SDS011;10220;42.716;23.306;2022-07-29T13:02:35;8.13;;;5.63;;
20118;SDS011;10220;42.716;23.306;2022-07-29T13:05:03;6.50;;;5.72;;
20118;SDS011;10220;42.716;23.306;2022-07-29T13:07:32;6.78;;;6.18;;
20118;SDS011;10220;42.716;23.306;2022-07-29T13:10:10;8.45;;;5.70;;
20118;SDS011;10220;42.716;23.306;2022-07-29T13:12:36;6.95;;;6.00;;
20118;SDS011;10220;42.716;23.306;2022-07-29T13:15:11;5.70;;;5.28;;
20118;SDS011;10220;42.716;23.306;2022-07-29T13:17:43;6.35;;;5.55;;
20118;SDS011;10220;42.716;23.306;2022-07-29T13:20:09;6.38;;;5.70;;
20118;SDS011;10220;42.716;23.306;2022-07-29T13:22:40;6.32;;;5.82;;
20118;SDS011;10220;42.716;23.306;2022-07-29T13:25:07;6.30;;;5.80;;
20118;SDS011;10220;42.716;23.306;2022-07-29T13:27:35;5.72;;;5.32;;
20118;SDS011;10220;42.716;23.306;2022-07-29T13:30:03;6.22;;;5.65;;
20118;SDS011;10220;42.716;23.306;2022-07-29T13:32:30;6.30;;;5.78;;
20118;SDS011;10220;42.716;23.306;2022-07-29T13:34:56;6.28;;;5.78;;
20118;SDS011;10220;42.716;23.306;2022-07-29T13:37:22;6.35;;;5.78;;
20118;SDS011;10220;42.716;23.306;2022-07-29T13:39:48;6.43;;;5.20;;
20118;SDS011;10220;42.716;23.306;2022-07-29T13:42:14;6.70;;;5.60;;
20118;SDS011;10220;42.716;23.306;2022-07-29T13:44:40;6.20;;;5.60;;
20118;SDS011;10220;42.716;23.306;2022-07-29T13:47:06;5.88;;;5.38;;
20118;SDS011;10220;42.716;23.306;2022-07-29T13:49:32;5.90;;;5.40;;
20118;SDS011;10220;42.716;23.306;2022-07-29T13:51:58;5.97;;;5.43;;
20118;SDS011;10220;42.716;23.306;2022-07-29T13:54:23;5.68;;;5.25;;
20118;SDS011;10220;42.716;23.306;2022-07-29T13:56:49;6.97;;;5.82;;
20118;SDS011;10220;42.716;23.306;2022-07-29T13:59:15;5.97;;;5.47;;
20118;SDS011;10220;42.716;23.306;2022-07-29T14:01:41;6.28;;;5.32;;
20118;SDS011;10220;42.716;23.306;2022-07-29T14:04:07;6.20;;;5.53;;
20118;SDS011;10220;42.716;23.306;2022-07-29T14:06:33;5.90;;;5.40;;
20118;SDS011;10220;42.716;23.306;2022-07-29T14:08:59;7.57;;;5.45;;
20118;SDS011;10220;42.716;23.306;2022-07-29T14:11:25;5.78;;;5.28;;
20118;SDS011;10220;42.716;23.306;2022-07-29T14:13:50;6.18;;;5.68;;
20118;SDS011;10220;42.716;23.306;2022-07-29T14:16:16;5.90;;;5.40;;
20118;SDS011;10220;42.716;23.306;2022-07-29T14:18:41;6.95;;;5.50;;
20118;SDS011;10220;42.716;23.306;2022-07-29T14:21:07;6.25;;;5.70;;
20118;SDS011;10220;42.716;23.306;2022-07-29T14:23:33;6.43;;;5.93;;
20118;SDS011;10220;42.716;23.306;2022-07-29T14:25:58;5.72;;;5.30;;
20118;SDS011;10220;42.716;23.306;2022-07-29T14:28:24;6.35;;;5.75;;
20118;SDS011;10220;42.716;23.306;2022-07-29T14:30:49;6.55;;;5.95;;
20118;SDS011;10220;42.716;23.306;2022-07-29T14:33:15;6.13;;;5.63;;
20118;SDS011;10220;42.716;23.306;2022-07-29T14:35:40;6.53;;;5.93;;
20118;SDS011;10220;42.716;23.306;2022-07-29T14:38:06;6.10;;;5.70;;
20118;SDS011;10220;42.716;23.306;2022-07-29T14:40:31;6.10;;;5.50;;
20118;SDS011;10220;42.716;23.306;2022-07-29T14:42:57;6.53;;;6.00;;
20118;SDS011;10220;42.716;23.306;2022-07-29T14:45:22;5.97;;;5.55;;
20118;SDS011;10220;42.716;23.306;2022-07-29T14:47:48;5.60;;;5.20;;
20118;SDS011;10220;42.716;23.306;2022-07-29T14:50:15;6.82;;;6.32;;
20118;SDS011;10220;42.716;23.306;2022-07-29T14:52:40;5.60;;;5.20;;
20118;SDS011;10220;42.716;23.306;2022-07-29T14:55:06;5.72;;;5.30;;
20118;SDS011;10220;42.716;23.306;2022-07-29T14:57:31;6.13;;;5.63;;
20118;SDS011;10220;42.716;23.306;2022-07-29T14:59:57;6.13;;;5.53;;
20118;SDS011;10220;42.716;23.306;2022-07-29T15:02:22;6.00;;;5.60;;
20118;SDS011;10220;42.716;23.306;2022-07-29T15:04:48;6.70;;;6.10;;
20118;SDS011;10220;42.716;23.306;2022-07-29T15:07:14;5.72;;;5.22;;
20118;SDS011;10220;42.716;23.306;2022-07-29T15:09:40;5.95;;;5.45;;
20118;SDS011;10220;42.716;23.306;2022-07-29T15:12:06;7.47;;;6.75;;
20118;SDS011;10220;42.716;23.306;2022-07-29T15:14:32;5.65;;;5.25;;
20118;SDS011;10220;42.716;23.306;2022-07-29T15:16:57;6.82;;;6.22;;
20118;SDS011;10220;42.716;23.306;2022-07-29T15:19:23;6.05;;;5.55;;
20118;SDS011;10220;42.716;23.306;2022-07-29T15:21:48;6.68;;;6.10;;
20118;SDS011;10220;42.716;23.306;2022-07-29T15:24:14;6.93;;;6.43;;